航空気象通報

ウインドサーファーのための航空気象通報による風予報です。

9/19-9/21の航空気象通報

2016年09月19日 23時27分51秒 | TAF

羽田空港
TAF RJTT 191109Z 1912/2018 36020KT 6000 -SHRA FEW008 BKN012
TEMPO 1912/1921 3000 SHRA BR FEW003 BKN005
TEMPO 2000/2003 4000 -SHRA BR FEW005 BKN008
TEMPO 2003/2012 3000 SHRA BR FEW003 BKN005
TEMPO 2012/2018 35026G36KT 3000 SHRA BR FEW003 BKN005
日本時間19日21時-21日03時:360度から20ノットの風
但し、20日21時-21日03時の間:ときどき350度から26ノット、突風36ノット

静岡空港
TAF RJNS 191105Z 1912/2018 06008KT 6000 FEW008 BKN015
TEMPO 1912/1915 3000 SHRA BR FEW003 BKN005
TEMPO 1915/1918 4000 -SHRA BR FEW005 BKN008
TEMPO 2003/2012 2000 +SHRA BR FEW001 BKN003
TEMPO 2012/2015 4000 -SHRA BR FEW003 BKN005
日本時間19日21時-21日03時:060度から8ノットの風

但し、19日21時-20日03時の間:ときどき

福岡空港
TAF RJFF 191105Z 1912/2018 02014KT 8000 -SHRA FEW005 SCT015 BKN020
TEMPO 1912/1920 4000 SHRA BR
BECMG 1919/1921 36025G40KT
TEMPO 1920/1924 3000 +SHRA BR FEW003 BKN005 BKN010
BECMG 2003/2006 36015KT
日本時間19日21時-20日04時:020度から14ノットの風
04-06時:風が変化
06-12時:360度から25ノット、突風40ノット
12-15時:風が変化
15時-21日03時:360度から15ノットの風

那覇空港
TAF ROAH 191111Z 1912/2018 30010KT 9999 FEW015 SCT025
BECMG 2006/2009 03008KT
日本時間19日21時-20日15時:300度から10ノットの風
15-18時:風が変化
18時-21日03時:030度から8ノットの風

石垣空港
TAF ROIG 191112Z 1912/2018 36010KT 9999 FEW020 SCT025
TEMPO 2006/2012 4000 SHRA FEW015 BKN020 FEW025CB
日本時間19日21時-21日09時:360度から10ノットの風

但し、20日15-21時の間:ときどき

マウイのカフルイ空港
PHOG 191338Z 1914/2012 06012KT P6SM FEW035 SCT050
FM192000 06018G28KT P6SM FEW030 SCT050
FM200600 06011G17KT P6SM FEW035 SCT050 AMD LTD TO VIS AND WIND TIL 191600
ハワイ時間19日02-10時:060度から12ノットの風
10-20時:060度から18ノット、突風28ノット
20時-20日02時:060度から11ノット、突風17ノット

サイパン空港
TAF PGSN 191125Z 1912/2012 10007KT P6SM VCSH FEW020 SCT100
マリアナ時間19日22時-21日22時:100度から7ノットの風

ジャンル:
お天気
コメント   この記事についてブログを書く
この記事をはてなブックマークに追加
« 9/17-9/19の航空気象通報 | トップ | 9/20-9/22の航空気象通報 »
最近の画像もっと見る

コメントを投稿

ブログ作成者から承認されるまでコメントは反映されません。

TAF」カテゴリの最新記事

トラックバック

この記事のトラックバック  Ping-URL
ブログ作成者から承認されるまでトラックバックは反映されません。
  • 30日以上前の記事に対するトラックバックは受け取らないよう設定されております。
  • 送信元の記事内容が半角英数のみのトラックバックは受け取らないよう設定されております。
  • このブログへのリンクがない記事からのトラックバックは受け取らないよう設定されております。
  • ※ブログ管理者のみ、編集画面で設定の変更が可能です。